Belmont, Texas
Current Conditions -  °F | °C
As of 6:51 AM on Sunday 21 Dec 2014 (Local Time) from KBAZ Reporting Station
Overcast Overcast  
Wind Chill: 51°   Ceiling: 1700
Heat Index: 51°   Visibility: 8mi
Dew Point: 48°   Wind: 6mph
Humidity: 89%   Direction: 160°SSE
Pressure: 30.1"   Gusts: NA
Location:  29.52°N, 97.68°W
Report Text: KBAZ 211251Z 16005KT 8SM OVC017 11/09 A3010 RMK AO2 SLP192 T01060089
Loading
Personal Weather Stations






























Interactive Weather Map New forecast layout! Learn more

10-Day Weather Forecast

Advertisements
Track Severe Weather on mobile